Terminal Aerodrome Forecast
Issued by NWS Duluth, MN

Home | Current Version | Previous Version | Text Only | Print | Product List | Glossary On
Versions: 1 2 3 4 5 6 7 8 9 10 11 12 13 14 15 16 17 18 19 20 21 22 23
000
FTUS43 KDLH 311137
TAFDLH
TAF
KDLH 311137Z 3112/0112 21010KT 5SM BR BKN005
      TEMPO 3112/3114 SCT005
     FM311400 21014G22KT P6SM FEW250
     FM010100 22011KT P6SM SCT040
     FM010800 23008KT 5SM BR SCT040 BKN120=

USA.gov is the U.S. government's official web portal to all federal, state and local government web resources and services.